Time;durP1;ratioP1;P1;durP2;ratioP2;P2;SDS_P1;SDS_P2;PMS_P1;PMS_P2;Temp;Humidity;BMP_temperature;BMP_pressure;BME280_temperature;BME280_humidity;BME280_pressure;Samples;Min_cycle;Max_cycle;Signal;HPM_P1;HPM_P2
2022/10/24 00:01:59;;;;;;;19.40;11.98;;;;;;;13.55;100.00;100296.50;5032266;28;20108;-62
2022/10/24 00:04:24;;;;;;;19.17;11.43;;;;;;;13.53;100.00;100291.25;5032258;28;20064;-62
2022/10/24 00:06:49;;;;;;;20.70;11.80;;;;;;;13.53;100.00;100293.22;5032095;28;20036;-61
2022/10/24 00:09:15;;;;;;;19.88;12.07;;;;;;;13.51;100.00;100296.31;5032051;28;20025;-62
2022/10/24 00:11:41;;;;;;;19.10;12.07;;;;;;;13.49;100.00;100287.53;5030768;28;20491;-62
2022/10/24 00:14:06;;;;;;;22.30;12.05;;;;;;;13.48;100.00;100279.53;5032184;28;20072;-62
2022/10/24 00:16:31;;;;;;;19.48;11.38;;;;;;;13.47;100.00;100278.72;5032303;28;20033;-62
2022/10/24 00:18:57;;;;;;;18.42;11.20;;;;;;;13.47;100.00;100281.50;5032034;28;20029;-62
2022/10/24 00:21:22;;;;;;;21.63;11.60;;;;;;;13.47;100.00;100287.06;5032142;28;20357;-62
2022/10/24 00:23:47;;;;;;;20.67;11.48;;;;;;;13.47;100.00;100283.44;5031853;28;20033;-62
2022/10/24 00:26:13;;;;;;;21.50;12.07;;;;;;;13.47;100.00;100275.13;5031907;28;20056;-61
2022/10/24 00:28:39;;;;;;;18.15;11.40;;;;;;;13.43;100.00;100283.31;5031905;28;20041;-63
2022/10/24 00:31:06;;;;;;;19.35;11.80;;;;;;;13.43;100.00;100274.19;5031832;28;20041;-61
2022/10/24 00:33:32;;;;;;;20.73;11.60;;;;;;;13.43;100.00;100272.22;5031912;28;20025;-61
2022/10/24 00:35:57;;;;;;;19.52;11.68;;;;;;;13.46;100.00;100279.06;5031723;28;20076;-61
2022/10/24 00:38:23;;;;;;;18.52;11.60;;;;;;;13.44;100.00;100273.03;5031572;28;20033;-62
2022/10/24 00:40:48;;;;;;;18.98;11.90;;;;;;;13.44;100.00;100270.25;5031563;28;20132;-61
2022/10/24 00:43:21;;;;;;;20.67;11.10;;;;;;;13.43;100.00;100269.44;5031513;28;20031;-61
2022/10/24 00:45:49;;;;;;;21.73;12.18;;;;;;;13.37;100.00;100260.44;5031802;28;20067;-61
2022/10/24 00:48:20;;;;;;;19.23;11.40;;;;;;;13.41;100.00;100263.44;5031881;28;20036;-61
2022/10/24 00:50:49;;;;;;;19.10;11.60;;;;;;;13.51;100.00;100270.53;5035868;28;20032;-61
2022/10/24 00:53:16;;;;;;;18.58;11.38;;;;;;;13.52;100.00;100267.38;5035616;28;20101;-62
2022/10/24 00:55:45;;;;;;;21.10;11.50;;;;;;;13.51;100.00;100257.44;5036029;28;20033;-62
2022/10/24 00:58:11;;;;;;;18.63;11.55;;;;;;;13.63;100.00;100267.81;5035666;28;20441;-62
2022/10/24 01:00:37;;;;;;;17.95;11.35;;;;;;;13.64;100.00;100266.66;5035622;28;20033;-62
2022/10/24 01:03:02;;;;;;;21.05;11.70;;;;;;;13.68;100.00;100255.66;5035700;28;20040;-62
2022/10/24 01:05:35;;;;;;;21.15;11.80;;;;;;;13.71;100.00;100249.41;5035381;28;20030;-62
2022/10/24 01:08:26;;;;;;;21.52;11.52;;;;;;;13.71;100.00;100257.75;5035657;28;20025;-62
2022/10/24 01:10:57;;;;;;;19.27;11.32;;;;;;;13.72;100.00;100262.16;5035452;28;20022;-62
2022/10/24 01:13:44;;;;;;;21.10;12.05;;;;;;;13.75;100.00;100260.63;5035574;28;20552;-62
2022/10/24 01:16:22;;;;;;;19.90;11.55;;;;;;;13.71;100.00;100264.13;5035215;28;20029;-62
2022/10/24 01:18:56;;;;;;;18.65;11.18;;;;;;;13.70;100.00;100256.09;5035599;28;20079;-66
2022/10/24 01:21:24;;;;;;;19.23;11.13;;;;;;;13.70;100.00;100253.31;5035046;28;20029;-62
2022/10/24 01:24:25;;;;;;;19.85;11.77;;;;;;;13.71;100.00;100252.19;5035110;28;20026;-63
2022/10/24 01:27:25;;;;;;;21.40;12.05;;;;;;;13.72;100.00;100254.63;5034652;28;20056;-62
2022/10/24 01:30:11;;;;;;;18.35;11.68;;;;;;;13.73;100.00;100245.16;5034978;28;20120;-62
2022/10/24 01:32:55;;;;;;;18.45;11.35;;;;;;;13.81;100.00;100246.19;5034777;28;20030;-63
2022/10/24 01:35:45;;;;;;;18.73;11.57;;;;;;;13.85;98.85;100238.81;5034805;28;20030;-62
2022/10/24 01:38:22;;;;;;;20.23;11.70;;;;;;;13.92;98.15;100242.97;5035006;28;20025;-64
2022/10/24 01:40:58;;;;;;;18.95;11.57;;;;;;;13.90;97.98;100237.78;5035093;28;20053;-62
2022/10/24 01:43:38;;;;;;;19.23;11.20;;;;;;;13.99;96.66;100246.00;5035045;28;20026;-62
2022/10/24 01:46:11;;;;;;;18.70;11.40;;;;;;;13.99;96.60;100235.72;5034852;28;20112;-63
2022/10/24 01:48:47;;;;;;;18.00;11.50;;;;;;;13.94;96.57;100235.91;5034633;28;20029;-62
2022/10/24 01:51:14;;;;;;;19.75;11.82;;;;;;;13.99;96.29;100235.72;5034710;28;20113;-62
2022/10/24 01:53:42;;;;;;;17.08;11.27;;;;;;;14.03;95.52;100233.03;5034816;28;20041;-62
2022/10/24 01:56:08;;;;;;;19.15;11.13;;;;;;;14.06;94.94;100225.97;5034950;28;20113;-61
2022/10/24 01:58:33;;;;;;;19.60;11.38;;;;;;;14.11;94.38;100223.78;5034188;28;20109;-61
2022/10/24 02:01:04;;;;;;;18.00;11.65;;;;;;;14.10;94.16;100219.38;5034578;28;20026;-62
2022/10/24 02:03:35;;;;;;;16.55;11.20;;;;;;;14.01;94.37;100204.75;5034586;28;20177;-62
2022/10/24 02:06:09;;;;;;;18.55;11.18;;;;;;;14.14;93.28;100222.28;5034461;28;20029;-62
2022/10/24 02:08:40;;;;;;;21.35;11.30;;;;;;;14.14;92.16;100213.94;5034723;28;20029;-62
2022/10/24 02:11:06;;;;;;;18.52;11.18;;;;;;;14.20;91.85;100215.34;5034501;28;20029;-62
2022/10/24 02:13:38;;;;;;;18.02;10.93;;;;;;;14.18;91.54;100212.88;5034353;28;20029;-62
2022/10/24 02:16:03;;;;;;;16.48;10.55;;;;;;;14.23;90.94;100227.75;5034474;28;20037;-61
2022/10/24 02:18:31;;;;;;;19.83;10.90;;;;;;;14.29;90.40;100215.22;5034434;28;20491;-61
2022/10/24 02:21:43;;;;;;;19.98;10.63;;;;;;;14.29;92.21;100229.13;5034417;28;20048;-62
2022/10/24 02:24:16;;;;;;;17.90;10.80;;;;;;;14.20;91.03;100212.56;4973395;28;20035;-62
2022/10/24 02:26:54;;;;;;;17.60;10.48;;;;;;;14.16;91.16;100211.63;5028696;28;20089;-62
2022/10/24 02:29:38;;;;;;;18.77;10.35;;;;;;;14.12;91.44;100207.94;5034314;28;20040;-62
2022/10/24 02:32:09;;;;;;;17.63;10.77;;;;;;;14.13;90.17;100210.34;5034876;28;20052;-62
2022/10/24 02:34:37;;;;;;;18.60;10.82;;;;;;;14.13;90.32;100221.47;5034126;28;20195;-62
2022/10/24 02:37:05;;;;;;;15.95;10.18;;;;;;;14.10;90.13;100208.25;5034070;28;20033;-62
2022/10/24 02:39:33;;;;;;;15.75;10.60;;;;;;;14.17;89.67;100216.03;5033927;28;20087;-62
2022/10/24 02:42:00;;;;;;;16.65;10.07;;;;;;;14.17;89.35;100216.03;5033828;28;20021;-62
2022/10/24 02:44:28;;;;;;;16.75;10.90;;;;;;;14.19;89.15;100214.53;5033846;28;20033;-62
2022/10/24 02:46:57;;;;;;;17.77;10.27;;;;;;;14.11;89.22;100207.09;5033808;28;20029;-62
2022/10/24 02:49:22;;;;;;;19.00;10.82;;;;;;;14.10;89.90;100221.34;5033773;28;20029;-63
2022/10/24 02:51:49;;;;;;;16.80;11.05;;;;;;;14.05;89.96;100222.41;5033516;28;20530;-62
2022/10/24 02:54:15;;;;;;;18.85;11.20;;;;;;;14.10;89.08;100213.81;5032245;28;20357;-62
2022/10/24 02:56:45;;;;;;;20.38;10.85;;;;;;;14.13;88.25;100210.34;5033564;28;20067;-62
2022/10/24 02:59:10;;;;;;;16.30;10.20;;;;;;;14.25;87.13;100212.31;5033619;28;20043;-63
2022/10/24 03:01:35;;;;;;;15.98;10.48;;;;;;;14.33;87.03;100218.94;5033433;28;20025;-62
2022/10/24 03:04:01;;;;;;;19.15;10.65;;;;;;;14.42;85.95;100228.00;5033452;28;20025;-62
2022/10/24 03:06:26;;;;;;;19.55;10.90;;;;;;;14.38;86.38;100224.25;5033448;28;20366;-62
2022/10/24 03:08:52;;;;;;;17.48;10.60;;;;;;;14.39;86.13;100220.31;5033467;28;20105;-61
2022/10/24 03:11:17;;;;;;;17.15;10.38;;;;;;;14.33;86.50;100222.53;5032652;28;20465;-62
2022/10/24 03:13:42;;;;;;;16.15;10.60;;;;;;;14.32;86.52;100225.66;5033319;28;20033;-62
2022/10/24 03:16:08;;;;;;;16.70;10.50;;;;;;;14.33;85.91;100225.31;5033352;28;20031;-61
2022/10/24 03:18:33;;;;;;;18.83;10.57;;;;;;;14.31;86.34;100227.63;5033145;28;20025;-62
2022/10/24 03:20:58;;;;;;;17.73;10.48;;;;;;;14.28;86.47;100221.94;5033000;28;20021;-62
2022/10/24 03:23:27;;;;;;;18.73;10.20;;;;;;;14.29;86.57;100226.34;5033031;28;20422;-61
2022/10/24 03:25:54;;;;;;;17.85;10.07;;;;;;;14.27;86.47;100223.94;5032873;28;20033;-61
2022/10/24 03:28:19;;;;;;;17.45;10.27;;;;;;;14.23;87.05;100214.63;5032760;28;20124;-62
2022/10/24 03:30:44;;;;;;;17.92;11.38;;;;;;;14.19;86.79;100224.84;5032883;28;20056;-62
2022/10/24 03:33:09;;;;;;;16.67;10.30;;;;;;;14.23;86.72;100214.63;5031676;28;20500;-61
2022/10/24 03:35:36;;;;;;;17.38;9.90;;;;;;;14.24;86.85;100221.03;5032643;28;20027;-61
2022/10/24 03:38:01;;;;;;;16.88;9.85;;;;;;;14.26;86.65;100213.94;5032897;28;20120;-61
2022/10/24 03:40:26;;;;;;;18.90;10.43;;;;;;;14.16;87.26;100218.00;5032848;28;20100;-61
2022/10/24 03:42:51;;;;;;;17.65;10.35;;;;;;;14.12;87.64;100207.94;5032689;28;20492;-61
2022/10/24 03:45:17;;;;;;;19.17;10.55;;;;;;;14.14;87.41;100209.19;5032629;28;20022;-62
2022/10/24 03:47:42;;;;;;;18.48;10.55;;;;;;;14.12;87.80;100208.72;5031249;28;20037;-62
2022/10/24 03:50:08;;;;;;;18.00;10.57;;;;;;;14.14;87.61;100203.63;5030879;28;20069;-62
2022/10/24 03:52:33;;;;;;;17.90;10.35;;;;;;;14.15;87.73;100198.88;5032357;28;20025;-62
2022/10/24 03:54:58;;;;;;;17.40;10.43;;;;;;;14.12;87.85;100205.94;5032381;28;20107;-61
2022/10/24 03:57:24;;;;;;;17.38;10.20;;;;;;;14.06;88.17;100195.38;5032402;28;20152;-62
2022/10/24 03:59:49;;;;;;;18.25;10.65;;;;;;;14.10;88.02;100202.69;5032391;28;20159;-61
2022/10/24 04:02:14;;;;;;;17.67;10.48;;;;;;;14.10;87.72;100205.47;5031039;28;20357;-61
2022/10/24 04:04:41;;;;;;;16.55;10.73;;;;;;;14.06;88.07;100204.56;5032079;28;20033;-62
2022/10/24 04:07:06;;;;;;;19.55;11.10;;;;;;;14.09;88.02;100197.47;5032394;28;20314;-62
2022/10/24 04:09:31;;;;;;;17.48;10.30;;;;;;;14.09;88.05;100203.03;5032171;28;20043;-61
2022/10/24 04:11:57;;;;;;;17.65;10.18;;;;;;;14.13;87.99;100204.78;5032064;28;20491;-62
2022/10/24 04:14:22;;;;;;;18.08;10.70;;;;;;;14.17;87.34;100202.13;5032086;28;20033;-62
2022/10/24 04:16:48;;;;;;;18.00;10.60;;;;;;;14.13;87.71;100196.44;5031965;28;20029;-62
2022/10/24 04:19:16;;;;;;;20.17;10.68;;;;;;;14.13;87.48;100202.00;5032027;28;20063;-62
2022/10/24 04:21:42;;;;;;;17.10;10.80;;;;;;;14.14;87.68;100203.63;5032194;28;20032;-62
2022/10/24 04:24:08;;;;;;;15.82;10.30;;;;;;;14.18;87.59;100204.53;5032247;28;20109;-61
2022/10/24 04:26:33;;;;;;;18.73;10.63;;;;;;;14.23;87.11;100202.72;5031656;28;20132;-61
2022/10/24 04:28:58;;;;;;;20.75;10.82;;;;;;;14.22;86.89;100203.88;5031848;28;20461;-61
2022/10/24 04:31:23;;;;;;;15.77;10.52;;;;;;;14.16;87.56;100192.97;5030604;28;20040;-61
2022/10/24 04:33:49;;;;;;;17.08;10.45;;;;;;;14.19;87.08;100185.91;5031921;28;20026;-62
2022/10/24 04:36:14;;;;;;;18.00;10.02;;;;;;;14.18;87.08;100203.75;5031751;28;20056;-61
2022/10/24 04:38:40;;;;;;;17.67;11.10;;;;;;;14.17;87.03;100204.91;5031675;28;20191;-61
2022/10/24 04:41:05;;;;;;;21.75;11.30;;;;;;;14.11;87.31;100198.75;5031669;28;20044;-62
2022/10/24 04:43:30;;;;;;;18.23;10.70;;;;;;;14.12;86.78;100189.25;5031733;28;20458;-62
2022/10/24 04:45:56;;;;;;;19.67;10.60;;;;;;;14.15;86.50;100198.88;5031704;28;20491;-61
2022/10/24 04:48:21;;;;;;;18.25;10.57;;;;;;;14.13;86.65;100195.63;5031597;28;20026;-61
2022/10/24 04:50:47;;;;;;;19.45;10.60;;;;;;;14.09;87.15;100205.81;5030266;28;20036;-61
2022/10/24 04:53:13;;;;;;;18.02;10.50;;;;;;;14.08;87.08;100204.19;5030272;28;20428;-61
2022/10/24 04:55:38;;;;;;;19.13;10.82;;;;;;;14.07;87.10;100202.56;5031692;28;20061;-62
2022/10/24 04:58:04;;;;;;;16.23;10.30;;;;;;;14.04;87.14;100204.88;5030636;28;20025;-61
2022/10/24 05:00:30;;;;;;;17.20;10.10;;;;;;;14.07;87.07;100214.53;5030275;28;20030;-61
2022/10/24 05:02:55;;;;;;;16.15;10.40;;;;;;;14.10;87.31;100216.59;5031542;28;20021;-62
2022/10/24 05:05:20;;;;;;;18.70;10.90;;;;;;;14.07;87.33;100211.75;5031400;28;20398;-62
2022/10/24 05:07:46;;;;;;;19.00;10.68;;;;;;;14.08;87.79;100216.13;5031845;28;20029;-62
2022/10/24 05:10:13;;;;;;;18.75;10.60;;;;;;;14.08;87.60;100205.00;5031615;28;20025;-61
2022/10/24 05:12:39;;;;;;;17.42;10.48;;;;;;;14.15;87.33;100215.56;5031633;28;20022;-61
2022/10/24 05:15:05;;;;;;;17.35;10.27;;;;;;;14.28;86.27;100205.25;5031490;28;20025;-61
2022/10/24 05:17:31;;;;;;;18.00;10.20;;;;;;;14.21;86.76;100200.28;5031261;28;20029;-62
2022/10/24 05:19:56;;;;;;;16.45;10.25;;;;;;;14.21;86.67;100203.06;5031432;28;20079;-62
2022/10/24 05:22:22;;;;;;;16.98;10.02;;;;;;;14.22;86.88;100217.78;5031423;28;20029;-61
2022/10/24 05:24:48;;;;;;;15.38;10.15;;;;;;;14.21;87.27;100219.75;5031422;28;20029;-61
2022/10/24 05:27:13;;;;;;;18.52;10.40;;;;;;;14.20;87.54;100229.25;5030906;28;20065;-61
2022/10/24 05:29:39;;;;;;;18.55;10.20;;;;;;;14.29;87.10;100229.97;5031226;28;20028;-61
2022/10/24 05:32:04;;;;;;;18.13;10.00;;;;;;;14.31;87.27;100229.59;5031067;28;20029;-62
2022/10/24 05:34:29;;;;;;;19.77;10.32;;;;;;;14.32;87.42;100222.88;5033234;28;20381;-62
2022/10/24 05:36:55;;;;;;;19.10;10.30;;;;;;;14.31;87.50;100238.75;5035010;28;20029;-61
2022/10/24 05:39:20;;;;;;;20.02;10.48;;;;;;;14.31;87.67;100232.38;5035196;28;20037;-62
2022/10/24 05:41:45;;;;;;;19.13;10.70;;;;;;;14.36;87.54;100232.16;5034814;28;20037;-61
2022/10/24 05:44:12;;;;;;;18.80;10.55;;;;;;;14.35;87.58;100224.97;5034717;28;20060;-61
2022/10/24 05:46:37;;;;;;;18.17;10.07;;;;;;;14.40;87.21;100235.06;5034794;28;20037;-63
2022/10/24 05:49:03;;;;;;;19.25;10.35;;;;;;;14.45;86.91;100220.91;5034912;28;20132;-61
2022/10/24 05:51:28;;;;;;;18.45;10.52;;;;;;;14.42;87.31;100233.56;5034666;28;20025;-61
2022/10/24 05:53:53;;;;;;;20.35;11.15;;;;;;;14.44;87.38;100227.63;5034633;28;20117;-61
2022/10/24 05:56:19;;;;;;;17.63;10.70;;;;;;;14.43;87.26;100239.91;5034429;28;20341;-61
2022/10/24 05:58:44;;;;;;;18.80;10.32;;;;;;;14.41;87.11;100231.09;5034542;28;20108;-61
2022/10/24 06:01:09;;;;;;;17.40;10.77;;;;;;;14.35;87.31;100231.34;5034595;28;20056;-61
2022/10/24 06:03:35;;;;;;;18.85;10.88;;;;;;;14.39;86.58;100231.47;5033985;28;20029;-60
2022/10/24 06:06:05;;;;;;;19.02;10.50;;;;;;;14.30;86.99;100230.75;5034317;28;20029;-61
2022/10/24 06:08:33;;;;;;;17.55;10.30;;;;;;;14.31;87.24;100238.75;5034328;28;20029;-60
2022/10/24 06:10:58;;;;;;;19.58;11.20;;;;;;;14.26;87.49;100243.75;5034533;28;20075;-60
2022/10/24 06:13:24;;;;;;;20.58;10.80;;;;;;;14.21;87.65;100239.22;5034278;28;20116;-60
2022/10/24 06:15:49;;;;;;;18.70;10.57;;;;;;;14.24;87.53;100234.94;5033826;28;20067;-60
2022/10/24 06:18:14;;;;;;;19.50;11.27;;;;;;;14.25;87.08;100245.72;5033870;28;20060;-61
2022/10/24 06:20:39;;;;;;;18.92;10.90;;;;;;;14.20;87.60;100245.94;5034431;28;20104;-61
2022/10/24 06:23:05;;;;;;;18.08;10.57;;;;;;;14.18;87.96;100243.50;5033740;28;20446;-60
2022/10/24 06:25:30;;;;;;;18.50;10.80;;;;;;;14.23;87.50;100248.00;5033891;28;20030;-60
2022/10/24 06:27:55;;;;;;;18.23;10.98;;;;;;;14.26;87.30;100241.78;5033393;28;20058;-60
2022/10/24 06:30:21;;;;;;;17.70;10.35;;;;;;;14.25;87.45;100245.72;5033601;28;20025;-61
2022/10/24 06:32:46;;;;;;;19.15;10.63;;;;;;;14.24;87.76;100246.88;5033794;28;20116;-60
2022/10/24 06:35:13;;;;;;;22.45;10.65;;;;;;;14.21;88.28;100255.91;5033615;28;20021;-60
2022/10/24 06:37:39;;;;;;;22.20;10.60;;;;;;;14.32;87.41;100253.50;5033856;28;20442;-61
2022/10/24 06:40:05;;;;;;;19.33;10.35;;;;;;;14.25;87.98;100256.03;5032391;28;20030;-61
2022/10/24 06:42:30;;;;;;;19.63;10.30;;;;;;;14.27;87.80;100260.09;5033688;28;20034;-60
2022/10/24 06:44:55;;;;;;;20.70;9.90;;;;;;;14.30;87.75;100253.00;5031807;28;20017;-60
2022/10/24 06:47:21;;;;;;;18.75;9.73;;;;;;;14.26;88.25;100269.59;5033095;28;20057;-61
2022/10/24 06:49:46;;;;;;;19.27;10.00;;;;;;;14.25;88.37;100272.72;5033533;28;20091;-60
2022/10/24 06:52:11;;;;;;;20.85;9.63;;;;;;;14.19;88.80;100278.50;5033698;28;20036;-61
2022/10/24 06:54:37;;;;;;;18.30;9.68;;;;;;;14.20;88.89;100270.97;5033646;28;20056;-61
2022/10/24 06:57:03;;;;;;;18.20;9.40;;;;;;;14.17;89.03;100285.56;5033531;28;20521;-61
2022/10/24 06:59:29;;;;;;;18.73;9.32;;;;;;;14.18;88.94;100287.19;5033347;28;20026;-61
2022/10/24 07:01:54;;;;;;;19.90;9.60;;;;;;;14.16;89.29;100286.72;5031926;28;20038;-61
2022/10/24 07:04:19;;;;;;;17.33;9.40;;;;;;;14.18;88.70;100287.19;5033284;28;20021;-61
2022/10/24 07:06:45;;;;;;;20.42;9.35;;;;;;;14.22;88.99;100296.47;5033087;28;20034;-61
2022/10/24 07:09:11;;;;;;;18.52;9.00;;;;;;;14.28;88.91;100303.44;5033248;28;20111;-61
2022/10/24 07:11:36;;;;;;;20.10;9.57;;;;;;;14.38;88.97;100309.72;5033168;28;20033;-61
2022/10/24 07:14:03;;;;;;;18.85;9.38;;;;;;;14.39;88.55;100312.16;5033158;28;20144;-61
2022/10/24 07:16:28;;;;;;;19.58;9.45;;;;;;;14.43;88.12;100304.75;5033426;28;20452;-61
2022/10/24 07:18:54;;;;;;;24.33;9.95;;;;;;;14.39;89.72;100314.94;5033112;28;20026;-61
2022/10/24 07:21:23;;;;;;;19.02;9.48;;;;;;;14.37;89.66;100308.91;5033141;28;20039;-61
2022/10/24 07:23:50;;;;;;;17.25;9.23;;;;;;;14.30;90.51;100317.00;5033209;28;20034;-60
2022/10/24 07:26:16;;;;;;;18.90;9.50;;;;;;;14.26;91.22;100327.22;5033012;28;20076;-61
2022/10/24 07:28:45;;;;;;;20.98;9.88;;;;;;;14.20;91.64;100321.06;5032886;28;20128;-60
2022/10/24 07:31:13;;;;;;;21.80;9.80;;;;;;;14.22;92.38;100332.63;5033054;28;20076;-60
2022/10/24 07:33:39;;;;;;;18.00;9.05;;;;;;;14.24;92.78;100335.09;5032757;28;20067;-60
2022/10/24 07:36:05;;;;;;;16.92;8.98;;;;;;;14.30;92.63;100334.53;5032837;28;20538;-60
2022/10/24 07:38:31;;;;;;;18.80;9.63;;;;;;;14.38;92.96;100345.91;5032655;28;20033;-61
2022/10/24 07:40:56;;;;;;;19.50;9.68;;;;;;;14.51;91.59;100348.38;5032742;28;20022;-60
2022/10/24 07:43:22;;;;;;;16.55;9.02;;;;;;;14.57;91.63;100350.91;5032533;28;20022;-60
2022/10/24 07:45:48;;;;;;;19.73;9.57;;;;;;;14.59;91.41;100345.81;5032618;28;20103;-60
2022/10/24 07:48:14;;;;;;;18.23;9.40;;;;;;;14.66;90.36;100349.69;5032699;28;20422;-60
2022/10/24 07:50:45;;;;;;;18.73;9.57;;;;;;;14.66;90.11;100340.47;5032847;28;20025;-60
2022/10/24 07:53:11;;;;;;;20.90;9.80;;;;;;;14.78;90.44;100359.22;5032333;28;20132;-60
2022/10/24 07:55:42;;;;;;;19.63;9.32;;;;;;;14.90;89.11;100362.00;5032345;28;20073;-60
2022/10/24 07:58:08;;;;;;;19.48;9.70;;;;;;;14.91;88.68;100362.81;5031993;28;20033;-61
2022/10/24 08:00:35;;;;;;;20.70;9.95;;;;;;;14.91;87.93;100371.19;5032175;28;20069;-63
2022/10/24 08:03:01;;;;;;;20.15;9.60;;;;;;;14.92;88.77;100386.72;5032289;28;20029;-61
2022/10/24 08:05:26;;;;;;;18.55;9.30;;;;;;;14.90;89.82;100394.63;5032263;28;20022;-61
2022/10/24 08:07:52;;;;;;;20.00;9.75;;;;;;;14.88;91.10;100394.94;5031881;28;20079;-61
2022/10/24 08:10:17;;;;;;;19.42;9.65;;;;;;;14.92;89.91;100395.88;5032254;28;20055;-61
2022/10/24 08:12:42;;;;;;;18.92;9.77;;;;;;;14.98;89.64;100393.69;5031918;28;20021;-61
2022/10/24 08:15:09;;;;;;;21.08;9.93;;;;;;;15.07;88.31;100388.00;5031872;28;20065;-61
2022/10/24 08:17:37;;;;;;;20.95;9.90;;;;;;;15.04;88.90;100380.34;5032057;28;20496;-61
2022/10/24 08:20:04;;;;;;;19.60;9.35;;;;;;;15.14;86.97;100396.59;5032089;28;20075;-61
2022/10/24 08:22:30;;;;;;;19.58;9.80;;;;;;;15.11;87.24;100388.94;5031727;28;20033;-61
2022/10/24 08:24:55;;;;;;;18.13;9.30;;;;;;;15.12;87.09;100398.91;5031801;28;20025;-61
2022/10/24 08:27:20;;;;;;;17.92;9.90;;;;;;;15.11;87.62;100400.88;5031483;28;20077;-61
2022/10/24 08:29:46;;;;;;;20.15;9.50;;;;;;;15.24;86.57;100400.88;5031832;28;20025;-61
2022/10/24 08:32:11;;;;;;;16.48;9.27;;;;;;;15.27;85.22;100408.56;5031725;28;20029;-61
2022/10/24 08:34:37;;;;;;;20.08;9.90;;;;;;;15.26;85.93;100404.94;5031614;28;20511;-61
2022/10/24 08:37:02;;;;;;;20.02;9.82;;;;;;;15.25;86.80;100410.88;5031589;28;20037;-61
2022/10/24 08:39:27;;;;;;;19.73;9.68;;;;;;;15.34;85.58;100414.34;5031842;28;20064;-61
2022/10/24 08:41:55;;;;;;;17.75;9.50;;;;;;;15.29;85.21;100404.25;5030189;28;20504;-61
2022/10/24 08:44:28;;;;;;;18.40;9.45;;;;;;;15.26;85.25;100404.13;5032023;28;20026;-61
2022/10/24 08:47:09;;;;;;;18.50;9.32;;;;;;;15.21;85.04;100421.09;5031614;28;20483;-61
2022/10/24 08:49:39;;;;;;;19.50;9.18;;;;;;;15.25;83.51;100417.28;5031757;28;20036;-61
2022/10/24 08:52:17;;;;;;;14.63;9.18;;;;;;;15.29;84.52;100412.63;5031686;28;20053;-61
2022/10/24 08:54:45;;;;;;;15.85;9.32;;;;;;;15.40;82.24;100412.94;5032010;28;20167;-62
2022/10/24 08:57:21;;;;;;;17.33;9.30;;;;;;;15.37;83.57;100413.66;5031775;28;20025;-62
2022/10/24 08:59:47;;;;;;;16.05;9.82;;;;;;;15.39;83.55;100411.34;5031382;28;20103;-61
2022/10/24 09:02:29;;;;;;;16.70;8.82;;;;;;;15.45;82.82;100406.31;5031434;28;20045;-62
2022/10/24 09:05:00;;;;;;;19.55;9.23;;;;;;;15.43;82.83;100423.41;5031707;28;20029;-61
2022/10/24 09:07:25;;;;;;;19.23;9.25;;;;;;;15.47;82.74;100422.72;5031534;28;20056;-61
2022/10/24 09:10:04;;;;;;;16.52;9.13;;;;;;;15.55;81.55;100425.34;5032570;28;20021;-61
2022/10/24 09:12:30;;;;;;;16.88;8.90;;;;;;;15.58;80.81;100426.66;5035540;28;20104;-61
2022/10/24 09:14:58;;;;;;;16.77;9.07;;;;;;;15.56;80.60;100415.03;5034109;28;20112;-62
2022/10/24 09:17:34;;;;;;;17.77;8.80;;;;;;;15.71;80.55;100449.75;5035416;28;20491;-61
2022/10/24 09:20:02;;;;;;;17.33;8.93;;;;;;;15.69;78.98;100429.75;5035404;28;20167;-61
2022/10/24 09:22:33;;;;;;;17.40;8.82;;;;;;;15.70;78.82;100426.63;5035253;28;20388;-61
2022/10/24 09:25:13;;;;;;;16.60;8.55;;;;;;;15.72;79.48;100448.59;5035260;28;20396;-62
2022/10/24 09:27:40;;;;;;;17.35;9.35;;;;;;;15.78;79.11;100443.56;5035264;28;20388;-62
2022/10/24 09:30:13;;;;;;;17.33;8.80;;;;;;;15.84;79.42;100453.34;5033653;28;20472;-61
2022/10/24 09:32:41;;;;;;;14.80;8.68;;;;;;;16.00;78.68;100457.03;5035318;28;20369;-61
2022/10/24 09:35:14;;;;;;;16.02;9.02;;;;;;;16.08;78.31;100452.47;5033768;28;20112;-61
2022/10/24 09:37:43;;;;;;;19.80;8.63;;;;;;;16.17;76.96;100455.94;5034975;28;20037;-61
2022/10/24 09:40:15;;;;;;;15.13;8.65;;;;;;;16.13;77.10;100465.38;5034948;28;20029;-61
2022/10/24 09:42:48;;;;;;;18.67;8.50;;;;;;;16.18;76.79;100463.16;5035181;28;20041;-61
2022/10/24 09:45:23;;;;;;;18.33;8.88;;;;;;;16.18;76.84;100462.31;5034861;28;20084;-61
2022/10/24 09:47:56;;;;;;;16.63;8.82;;;;;;;16.25;76.25;100465.31;5034905;28;20068;-61
2022/10/24 09:50:22;;;;;;;18.00;8.70;;;;;;;16.23;75.72;100467.66;5034676;28;20432;-61
2022/10/24 09:52:52;;;;;;;14.85;8.30;;;;;;;16.19;76.29;100470.38;5034595;28;20021;-61
2022/10/24 09:55:24;;;;;;;19.17;8.82;;;;;;;16.24;75.42;100472.09;5034470;28;20448;-61
2022/10/24 09:57:55;;;;;;;19.55;9.13;;;;;;;16.27;75.55;100490.91;5032925;28;20485;-62
2022/10/24 10:00:30;;;;;;;17.95;8.75;;;;;;;16.34;76.03;100493.09;5034522;28;20084;-61
2022/10/24 10:03:02;;;;;;;17.70;8.73;;;;;;;16.39;75.07;100490.03;5034601;28;20079;-61
2022/10/24 10:06:13;;;;;;;15.15;8.43;;;;;;;16.44;76.32;100487.00;5034534;28;20033;-61
2022/10/24 10:08:38;;;;;;;20.35;8.73;;;;;;;16.51;73.75;100489.19;4997745;28;20037;-61
2022/10/24 10:11:09;;;;;;;18.25;8.73;;;;;;;16.51;74.64;100486.41;5034559;28;20334;-61
2022/10/24 10:13:52;;;;;;;20.85;8.77;;;;;;;16.58;74.49;100503.34;5034528;28;20022;-61
2022/10/24 10:16:25;;;;;;;17.52;8.77;;;;;;;16.52;74.42;100491.63;5034583;28;20491;-61
2022/10/24 10:19:00;;;;;;;20.35;9.38;;;;;;;16.66;73.42;100507.97;5034711;28;20112;-61
2022/10/24 10:21:26;;;;;;;18.77;9.13;;;;;;;16.75;73.60;100515.38;5034833;28;20087;-61
2022/10/24 10:23:55;;;;;;;17.77;9.05;;;;;;;16.78;73.28;100517.47;5034285;28;20033;-62
2022/10/24 10:26:28;;;;;;;16.85;9.35;;;;;;;16.83;73.72;100522.78;5034098;28;20497;-61
2022/10/24 10:29:19;;;;;;;20.48;9.32;;;;;;;16.95;73.22;100517.16;5034395;28;20025;-61
2022/10/24 10:32:26;;;;;;;19.15;9.30;;;;;;;17.02;73.93;100527.72;5034549;28;20041;-61
2022/10/24 10:35:06;;;;;;;18.45;9.77;;;;;;;17.12;73.13;100504.03;5034233;28;20052;-61
2022/10/24 10:37:39;;;;;;;22.48;9.60;;;;;;;17.30;71.65;100522.06;5034107;28;20067;-61
2022/10/24 10:40:24;;;;;;;18.70;9.43;;;;;;;17.37;70.93;100532.63;5034014;28;20037;-61
2022/10/24 10:43:23;;;;;;;16.65;9.00;;;;;;;17.49;71.06;100528.91;5033823;28;20508;-61
2022/10/24 10:46:13;;;;;;;19.17;8.90;;;;;;;17.66;69.85;100524.16;5033446;28;20029;-60
2022/10/24 10:48:46;;;;;;;17.08;8.75;;;;;;;17.73;69.09;100538.31;5033588;28;20469;-61
2022/10/24 10:51:31;;;;;;;17.15;8.73;;;;;;;17.81;69.33;100533.66;5033469;28;20029;-61
2022/10/24 10:54:21;;;;;;;20.00;8.90;;;;;;;17.72;69.34;100543.06;5033580;28;20029;-61
2022/10/24 10:56:53;;;;;;;20.25;9.00;;;;;;;17.58;69.24;100553.91;5033448;28;20420;-61
2022/10/24 10:59:56;;;;;;;18.20;9.52;;;;;;;17.46;69.17;100564.00;5033190;28;20045;-61
2022/10/24 11:02:49;;;;;;;19.52;9.82;;;;;;;17.18;69.28;100558.50;5033323;28;20052;-61
2022/10/24 11:05:35;;;;;;;16.48;9.25;;;;;;;17.08;69.63;100570.19;5033408;28;20036;-61
2022/10/24 11:08:13;;;;;;;16.92;9.20;;;;;;;16.93;70.63;100572.59;5033061;28;20378;-61
2022/10/24 11:10:46;;;;;;;17.45;9.15;;;;;;;16.88;71.09;100561.66;5033132;28;20033;-61
2022/10/24 11:13:21;;;;;;;24.52;9.93;;;;;;;16.72;72.75;100564.38;5033185;28;20469;-62
2022/10/24 11:15:52;;;;;;;17.70;9.45;;;;;;;16.61;74.51;100566.88;5033011;28;20094;-61
2022/10/24 11:18:26;;;;;;;16.85;9.48;;;;;;;16.61;75.68;100574.44;5033103;28;20032;-61
2022/10/24 11:21:05;;;;;;;16.85;9.05;;;;;;;16.48;76.40;100562.50;5033208;28;20044;-61
2022/10/24 11:23:59;;;;;;;16.88;8.95;;;;;;;16.41;76.84;100557.50;5032953;28;20503;-61